createdAt,value
2022-08-05T00:02:07.731Z,97764.09
2022-08-05T00:04:40.379Z,97766.80
2022-08-05T00:07:27.052Z,97765.21
2022-08-05T00:10:02.990Z,97759.25
2022-08-05T00:12:33.378Z,97756.40
2022-08-05T00:15:57.667Z,97757.27
2022-08-05T00:18:08.899Z,97758.40
2022-08-05T00:20:51.900Z,97756.80
2022-08-05T00:23:44.702Z,97750.48
2022-08-05T00:26:17.378Z,97751.56
2022-08-05T00:28:47.655Z,97750.95
2022-08-05T00:31:53.317Z,97744.48
2022-08-05T00:34:55.635Z,97746.84
2022-08-05T00:37:09.766Z,97744.30
2022-08-05T00:39:58.778Z,97744.41
2022-08-05T00:42:33.222Z,97743.88
2022-08-05T00:45:11.477Z,97739.39
2022-08-05T00:47:56.380Z,97740.41
2022-08-05T00:50:28.138Z,97741.65
2022-08-05T00:52:58.457Z,97741.15
2022-08-05T00:55:33.985Z,97739.73
2022-08-05T00:58:13.737Z,97738.72
2022-08-05T01:00:44.026Z,97737.10
2022-08-05T01:03:22.892Z,97739.98
2022-08-05T01:05:54.813Z,97736.86
2022-08-05T01:08:40.453Z,97740.09
2022-08-05T01:11:24.253Z,97736.95
2022-08-05T01:14:11.737Z,97733.37
2022-08-05T01:16:52.279Z,97736.11
2022-08-05T01:20:00.995Z,97731.61
2022-08-05T01:22:39.672Z,97728.23
2022-08-05T01:25:40.922Z,97727.20
2022-08-05T01:28:31.898Z,97721.94
2022-08-05T01:31:10.142Z,97718.52
2022-08-05T01:33:49.331Z,97719.56
2022-08-05T01:36:29.939Z,97718.05
2022-08-05T01:39:01.532Z,97717.88
2022-08-05T01:41:37.591Z,97712.40
2022-08-05T01:44:09.840Z,97712.13
2022-08-05T01:46:46.277Z,97707.17
2022-08-05T01:49:24.418Z,97706.59
2022-08-05T01:52:01.739Z,97705.80
2022-08-05T01:54:52.011Z,97704.84
2022-08-05T01:58:11.160Z,97705.73
2022-08-05T02:00:20.539Z,97701.31
2022-08-05T02:03:07.099Z,97699.25
2022-08-05T02:06:01.029Z,97695.91
2022-08-05T02:08:40.818Z,97699.02
2022-08-05T02:11:32.840Z,97692.87
2022-08-05T02:14:12.928Z,97688.55
2022-08-05T02:16:52.172Z,97685.73
2022-08-05T02:19:34.408Z,97686.00
2022-08-05T02:22:25.351Z,97683.99
2022-08-05T02:25:04.384Z,97680.66
2022-08-05T02:27:59.050Z,97677.45
2022-08-05T02:30:37.216Z,97675.03
2022-08-05T02:33:24.590Z,97677.73
2022-08-05T02:36:13.771Z,97672.05
2022-08-05T02:38:53.126Z,97672.70
2022-08-05T02:41:28.909Z,97670.55
2022-08-05T02:44:14.269Z,97665.80
2022-08-05T02:46:58.540Z,97664.89
2022-08-05T02:49:37.952Z,97664.36
2022-08-05T02:52:29.416Z,97664.09
2022-08-05T02:55:05.595Z,97663.71
2022-08-05T02:58:19.949Z,97661.95
2022-08-05T03:00:34.017Z,97659.70
2022-08-05T03:03:10.138Z,97661.79
2022-08-05T03:06:54.363Z,97661.08
2022-08-05T03:08:32.295Z,97662.56
2022-08-05T03:11:57.301Z,97658.98
2022-08-05T03:14:02.715Z,97657.69
2022-08-05T03:16:36.042Z,97656.04
2022-08-05T03:19:12.650Z,97656.41
2022-08-05T03:21:49.418Z,97655.32
2022-08-05T03:24:30.200Z,97656.41
2022-08-05T03:27:01.415Z,97654.80
2022-08-05T03:29:44.738Z,97653.72
2022-08-05T03:32:31.158Z,97647.29
2022-08-05T03:35:01.820Z,97648.91
2022-08-05T03:37:46.131Z,97649.85
2022-08-05T03:40:24.363Z,97650.81
2022-08-05T03:43:58.893Z,97649.97
2022-08-05T03:45:57.951Z,97648.80
2022-08-05T03:48:29.447Z,97648.96
2022-08-05T03:52:38.561Z,97645.14
2022-08-05T03:55:52.848Z,97644.28
2022-08-05T03:56:50.227Z,97644.05
2022-08-05T03:59:26.417Z,97644.61
2022-08-05T04:02:02.083Z,97642.79
2022-08-05T04:04:35.418Z,97645.27
2022-08-05T04:07:09.576Z,97649.52
2022-08-05T04:09:53.526Z,97644.48
2022-08-05T04:12:24.964Z,97646.71
2022-08-05T04:14:57.578Z,97647.52
2022-08-05T04:17:55.757Z,97642.89
2022-08-05T04:20:23.323Z,97644.95
2022-08-05T04:22:53.618Z,97647.37
2022-08-05T04:25:57.446Z,97649.09
2022-08-05T04:28:15.142Z,97649.64
2022-08-05T04:30:48.107Z,97647.89
2022-08-05T04:33:20.572Z,97647.59
2022-08-05T04:36:38.173Z,97649.01
2022-08-05T04:39:00.847Z,97646.90
2022-08-05T04:41:37.874Z,97649.30
2022-08-05T04:44:09.876Z,97647.36
2022-08-05T04:46:40.218Z,97646.40
2022-08-05T04:49:14.555Z,97649.26
2022-08-05T04:51:45.739Z,97648.34
2022-08-05T04:54:19.458Z,97654.29
2022-08-05T04:56:49.537Z,97648.39
2022-08-05T04:59:24.232Z,97651.03
2022-08-05T05:02:37.225Z,97651.83
2022-08-05T05:05:01.640Z,97650.19
2022-08-05T05:07:36.409Z,97649.29
2022-08-05T05:10:08.017Z,97649.31
2022-08-05T05:12:38.179Z,97649.64
2022-08-05T05:15:10.654Z,97651.10
2022-08-05T05:17:56.485Z,97649.66
2022-08-05T05:20:28.670Z,97647.65
2022-08-05T05:23:03.114Z,97646.30
2022-08-05T05:25:40.601Z,97650.30
2022-08-05T05:28:12.097Z,97649.13
2022-08-05T05:30:42.298Z,97648.23
2022-08-05T05:33:17.074Z,97652.37
2022-08-05T05:35:48.335Z,97655.95
2022-08-05T05:38:22.889Z,97657.94
2022-08-05T05:41:01.019Z,97660.55
2022-08-05T05:43:58.071Z,97659.92
2022-08-05T05:46:22.457Z,97660.89
2022-08-05T05:48:55.478Z,97660.91
2022-08-05T05:51:28.107Z,97658.44
2022-08-05T05:53:59.961Z,97659.65
2022-08-05T05:56:34.520Z,97653.30
2022-08-05T05:59:08.223Z,97652.46
2022-08-05T06:01:40.278Z,97654.73
2022-08-05T06:04:12.945Z,97654.89
2022-08-05T06:06:47.407Z,97650.72
2022-08-05T06:09:27.458Z,97650.27
2022-08-05T06:12:10.298Z,97657.79
2022-08-05T06:14:44.271Z,97655.15
2022-08-05T06:17:52.430Z,97650.69
2022-08-05T06:20:06.657Z,97653.03
2022-08-05T06:22:49.498Z,97651.19
2022-08-05T06:25:25.064Z,97649.20
2022-08-05T06:28:20.870Z,97650.75
2022-08-05T06:30:51.857Z,97649.67
2022-08-05T06:34:00.464Z,97649.69
2022-08-05T06:36:13.184Z,97651.82
2022-08-05T06:38:47.219Z,97648.65
2022-08-05T06:41:17.738Z,97651.15
2022-08-05T06:44:00.256Z,97647.45
2022-08-05T06:46:32.338Z,97648.66
2022-08-05T06:49:08.220Z,97651.38
2022-08-05T06:51:40.806Z,97645.79
2022-08-05T06:54:12.054Z,97641.57
2022-08-05T06:57:58.179Z,97642.09
2022-08-05T06:59:57.920Z,97640.02
2022-08-05T07:02:28.376Z,97642.69
2022-08-05T07:04:59.538Z,97638.91
2022-08-05T07:07:35.429Z,97636.00
2022-08-05T07:10:14.964Z,97630.66
2022-08-05T07:13:04.896Z,97633.80
2022-08-05T07:16:01.666Z,97637.22
2022-08-05T07:18:34.938Z,97641.02
2022-08-05T07:21:07.696Z,97645.70
2022-08-05T07:23:40.639Z,97644.29
2022-08-05T07:26:24.961Z,97638.23
2022-08-05T07:28:56.257Z,97635.68
2022-08-05T07:31:41.109Z,97638.67
2022-08-05T07:34:26.238Z,97642.41
2022-08-05T07:36:58.737Z,97640.54
2022-08-05T07:40:25.952Z,97646.83
2022-08-05T07:42:33.539Z,97645.33
2022-08-05T07:45:09.364Z,97646.62
2022-08-05T07:47:42.283Z,97645.90
2022-08-05T07:50:16.666Z,97646.02
2022-08-05T07:52:47.060Z,97647.80
2022-08-05T07:55:44.150Z,97650.13
2022-08-05T07:58:08.532Z,97652.44
2022-08-05T08:00:48.057Z,97650.27
2022-08-05T08:03:18.136Z,97650.15
2022-08-05T08:05:52.137Z,97641.43
2022-08-05T08:08:23.462Z,97643.48
2022-08-05T08:10:59.502Z,97641.20
2022-08-05T08:13:29.657Z,97642.64
2022-08-05T08:16:34.694Z,97641.23
2022-08-05T08:19:03.419Z,97647.91
2022-08-05T08:21:36.738Z,97647.91
2022-08-05T08:24:13.825Z,97645.90
2022-08-05T08:26:44.665Z,97650.84
2022-08-05T08:29:29.449Z,97653.70
2022-08-05T08:32:05.737Z,97654.44
2022-08-05T08:34:41.496Z,97653.70
2022-08-05T08:37:12.578Z,97650.95
2022-08-05T08:39:49.397Z,97648.55
2022-08-05T08:42:33.936Z,97647.31
2022-08-05T08:45:26.557Z,97645.80
2022-08-05T08:48:22.324Z,97645.52
2022-08-05T08:51:23.252Z,97646.02
2022-08-05T08:53:47.936Z,97643.29
2022-08-05T08:56:20.822Z,97642.56
2022-08-05T08:58:59.151Z,97646.01
2022-08-05T09:01:32.103Z,97645.36
2022-08-05T09:04:02.816Z,97644.69
2022-08-05T09:06:33.216Z,97645.08
2022-08-05T09:09:07.258Z,97644.95
2022-08-05T09:11:51.052Z,97645.60
2022-08-05T09:14:57.153Z,97648.20
2022-08-05T09:17:41.022Z,97646.45
2022-08-05T09:20:11.022Z,97644.04
2022-08-05T09:23:07.852Z,97643.00
2022-08-05T09:26:02.798Z,97638.01
2022-08-05T09:28:34.750Z,97635.09
2022-08-05T09:31:43.427Z,97631.89
2022-08-05T09:33:59.678Z,97631.91
2022-08-05T09:36:45.791Z,97632.67
2022-08-05T09:39:41.362Z,97638.71
2022-08-05T09:42:24.092Z,97641.36
2022-08-05T09:46:04.567Z,97642.63
2022-08-05T09:47:57.480Z,97640.55
2022-08-05T09:50:44.017Z,97633.56
2022-08-05T09:53:25.828Z,97627.35
2022-08-05T09:56:12.959Z,97623.02
2022-08-05T09:58:59.017Z,97623.84
2022-08-05T10:01:33.258Z,97624.22
2022-08-05T10:04:10.229Z,97619.52
2022-08-05T10:06:49.797Z,97617.91
2022-08-05T10:09:30.230Z,97615.23
2022-08-05T10:12:18.789Z,97614.24
2022-08-05T10:15:23.143Z,97611.04
2022-08-05T10:18:22.262Z,97610.95
2022-08-05T10:20:54.462Z,97608.14
2022-08-05T10:23:55.686Z,97607.33
2022-08-05T10:26:17.058Z,97607.69
2022-08-05T10:28:50.613Z,97606.86
2022-08-05T10:32:55.862Z,97612.21
2022-08-05T10:34:17.656Z,97606.06
2022-08-05T10:36:48.816Z,97610.40
2022-08-05T10:39:25.053Z,97609.38
2022-08-05T10:42:18.616Z,97604.04
2022-08-05T10:44:55.498Z,97607.59
2022-08-05T10:47:32.016Z,97603.61
2022-08-05T10:50:33.260Z,97606.23
2022-08-05T10:52:58.782Z,97605.34
2022-08-05T10:55:32.890Z,97598.77
2022-08-05T10:58:47.854Z,97593.64
2022-08-05T11:01:28.381Z,97592.55
2022-08-05T11:04:09.259Z,97596.27
2022-08-05T11:07:11.136Z,97597.71
2022-08-05T11:09:47.046Z,97596.54
2022-08-05T11:12:50.319Z,97595.21
2022-08-05T11:15:23.060Z,97591.38
2022-08-05T11:17:59.039Z,97587.25
2022-08-05T11:20:41.629Z,97585.35
2022-08-05T11:24:04.264Z,97585.55
2022-08-05T11:26:28.732Z,97589.46
2022-08-05T11:29:11.489Z,97590.45
2022-08-05T11:31:54.300Z,97584.05
2022-08-05T11:34:51.079Z,97584.73
2022-08-05T11:38:28.358Z,97580.96
2022-08-05T11:41:01.738Z,97582.55
2022-08-05T11:44:05.440Z,97582.66
2022-08-05T11:47:10.257Z,97584.63
2022-08-05T11:49:33.946Z,97578.23
2022-08-05T11:52:08.658Z,97580.02
2022-08-05T11:54:43.606Z,97578.20
2022-08-05T11:57:30.668Z,97577.42
2022-08-05T12:00:27.697Z,97582.84
2022-08-05T12:03:15.311Z,97578.58
2022-08-05T12:05:46.137Z,97581.66
2022-08-05T12:08:20.137Z,97577.52
2022-08-05T12:10:52.527Z,97577.09
2022-08-05T12:13:47.430Z,97566.15
2022-08-05T12:16:19.980Z,97565.13
2022-08-05T12:18:54.697Z,97564.22
2022-08-05T12:21:30.421Z,97562.48
2022-08-05T12:24:06.944Z,97562.09
2022-08-05T12:26:39.777Z,97563.20
2022-08-05T12:29:22.570Z,97557.13
2022-08-05T12:31:56.820Z,97552.96
2022-08-05T12:34:29.576Z,97554.10
2022-08-05T12:37:10.297Z,97554.34
2022-08-05T12:39:41.524Z,97554.73
2022-08-05T12:42:17.500Z,97555.81
2022-08-05T12:44:48.705Z,97560.25
2022-08-05T12:47:30.672Z,97558.71
2022-08-05T12:50:13.177Z,97559.73
2022-08-05T12:52:59.900Z,97557.15
2022-08-05T12:55:35.322Z,97555.47
2022-08-05T12:58:49.930Z,97554.41
2022-08-05T13:02:03.461Z,97551.99
2022-08-05T13:03:48.899Z,97553.58
2022-08-05T13:06:21.937Z,97552.58
2022-08-05T13:08:52.981Z,97548.10
2022-08-05T13:12:01.206Z,97550.29
2022-08-05T13:14:36.004Z,97554.11
2022-08-05T13:17:16.823Z,97552.70
2022-08-05T13:20:06.218Z,97546.83
2022-08-05T13:22:41.458Z,97540.38
2022-08-05T13:25:19.242Z,97542.65
2022-08-05T13:27:54.017Z,97542.36
2022-08-05T13:30:36.805Z,97539.67
2022-08-05T13:33:14.151Z,97533.98
2022-08-05T13:35:51.248Z,97534.89
2022-08-05T13:38:30.936Z,97535.81
2022-08-05T13:41:07.209Z,97525.88
2022-08-05T13:43:44.683Z,97525.06
2022-08-05T13:49:15.181Z,97521.06
2022-08-05T13:51:46.590Z,97519.42
2022-08-05T13:54:21.086Z,97521.90
2022-08-05T13:56:56.427Z,97517.05
2022-08-05T13:59:30.628Z,97517.37
2022-08-05T14:02:05.655Z,97514.48
2022-08-05T14:04:55.980Z,97510.48
2022-08-05T14:08:00.111Z,97507.95
2022-08-05T14:10:28.077Z,97502.96
2022-08-05T14:13:00.056Z,97504.81
2022-08-05T14:16:08.602Z,97502.92
2022-08-05T14:18:23.468Z,97498.59
2022-08-05T14:20:55.655Z,97494.43
2022-08-05T14:23:27.435Z,97492.48
2022-08-05T14:26:04.970Z,97492.23
2022-08-05T14:28:52.351Z,97494.17
2022-08-05T14:31:54.565Z,97493.84
2022-08-05T14:34:13.218Z,97495.13
2022-08-05T14:36:43.739Z,97492.58
2022-08-05T14:39:23.286Z,97491.80
2022-08-05T14:42:15.963Z,97488.96
2022-08-05T14:44:45.942Z,97486.67
2022-08-05T14:47:16.304Z,97488.56
2022-08-05T14:50:18.061Z,97487.39
2022-08-05T14:52:56.945Z,97484.27
2022-08-05T14:55:39.251Z,97482.73
2022-08-05T14:58:14.026Z,97484.85
2022-08-05T15:00:59.806Z,97477.61
2022-08-05T15:03:34.066Z,97477.08
2022-08-05T15:06:15.023Z,97479.65
2022-08-05T15:08:59.752Z,97477.08
2022-08-05T15:11:52.845Z,97476.95
2022-08-05T15:14:35.794Z,97475.31
2022-08-05T15:17:45.042Z,97477.04
2022-08-05T15:20:04.937Z,97471.33
2022-08-05T15:22:38.156Z,97469.58
2022-08-05T15:25:11.829Z,97469.30
2022-08-05T15:27:52.274Z,97462.77
2022-08-05T15:30:23.176Z,97463.86
2022-08-05T15:32:55.298Z,97461.17
2022-08-05T15:35:36.092Z,97455.30
2022-08-05T15:38:32.392Z,97452.40
2022-08-05T15:41:20.066Z,97453.13
2022-08-05T15:43:47.634Z,97449.08
2022-08-05T15:46:20.341Z,97451.60
2022-08-05T15:49:00.612Z,97454.82
2022-08-05T15:52:09.823Z,97451.15
2022-08-05T15:54:34.754Z,97453.07
2022-08-05T15:57:09.468Z,97453.94
2022-08-05T15:59:40.301Z,97454.52
2022-08-05T16:02:14.889Z,97456.64
2022-08-05T16:04:50.188Z,97455.79
2022-08-05T16:07:21.217Z,97455.18
2022-08-05T16:09:54.087Z,97460.70
2022-08-05T16:12:24.474Z,97454.58
2022-08-05T16:14:54.778Z,97455.06
2022-08-05T16:17:25.497Z,97451.02
2022-08-05T16:20:04.168Z,97447.38
2022-08-05T16:22:37.025Z,97445.09
2022-08-05T16:25:10.260Z,97448.25
2022-08-05T16:28:00.316Z,97450.09
2022-08-05T16:30:31.986Z,97449.44
2022-08-05T16:33:03.738Z,97452.77
2022-08-05T16:35:42.991Z,97453.55
2022-08-05T16:38:24.670Z,97450.43
2022-08-05T16:41:00.219Z,97450.90
2022-08-05T16:43:33.631Z,97448.42
2022-08-05T16:46:24.031Z,97451.01
2022-08-05T16:48:55.781Z,97449.41
2022-08-05T16:51:30.671Z,97450.98
2022-08-05T16:54:17.138Z,97447.45
2022-08-05T16:56:47.836Z,97445.69
2022-08-05T16:59:22.499Z,97444.61
2022-08-05T17:01:55.703Z,97442.83
2022-08-05T17:04:28.632Z,97446.48
2022-08-05T17:07:00.632Z,97443.45
2022-08-05T17:09:49.959Z,97440.55
2022-08-05T17:12:50.651Z,97446.36
2022-08-05T17:15:19.610Z,97442.95
2022-08-05T17:17:55.126Z,97444.88
2022-08-05T17:20:26.624Z,97446.89
2022-08-05T17:22:57.582Z,97452.41
2022-08-05T17:25:40.214Z,97451.77
2022-08-05T17:28:11.098Z,97454.27
2022-08-05T17:30:51.771Z,97456.69
2022-08-05T17:33:23.056Z,97454.95
2022-08-05T17:36:09.394Z,97455.66
2022-08-05T17:38:43.816Z,97456.05
2022-08-05T17:42:16.705Z,97456.52
2022-08-05T17:44:05.418Z,97458.21
2022-08-05T17:46:41.617Z,97458.02
2022-08-05T17:49:15.580Z,97459.27
2022-08-05T17:51:46.102Z,97459.05
2022-08-05T17:54:23.362Z,97453.96
2022-08-05T17:56:54.061Z,97454.14
2022-08-05T17:59:25.378Z,97463.70
2022-08-05T18:01:56.139Z,97462.91
2022-08-05T18:04:29.979Z,97459.65
2022-08-05T18:07:02.856Z,97458.58
2022-08-05T18:09:59.161Z,97459.06
2022-08-05T18:12:24.728Z,97458.05
2022-08-05T18:14:55.097Z,97459.67
2022-08-05T18:18:00.710Z,97456.58
2022-08-05T18:20:15.458Z,97459.04
2022-08-05T18:22:54.550Z,97456.34
2022-08-05T18:25:25.474Z,97463.53
2022-08-05T18:28:04.925Z,97466.44
2022-08-05T18:30:35.983Z,97472.67
2022-08-05T18:33:13.506Z,97472.31
2022-08-05T18:36:00.723Z,97474.17
2022-08-05T18:38:38.499Z,97479.85
2022-08-05T18:41:56.853Z,97479.69
2022-08-05T18:44:05.510Z,97475.39
2022-08-05T18:46:37.430Z,97476.81
2022-08-05T18:49:30.345Z,97476.80
2022-08-05T18:52:33.213Z,97480.92
2022-08-05T18:55:10.405Z,97480.38
2022-08-05T18:57:43.544Z,97477.45
2022-08-05T19:00:27.247Z,97476.92
2022-08-05T19:03:03.671Z,97479.22
2022-08-05T19:06:11.210Z,97482.77
2022-08-05T19:08:30.245Z,97486.11
2022-08-05T19:11:02.836Z,97488.02
2022-08-05T19:13:35.854Z,97487.29
2022-08-05T19:16:24.878Z,97488.86
2022-08-05T19:18:59.501Z,97491.46
2022-08-05T19:21:34.344Z,97488.36
2022-08-05T19:24:12.981Z,97492.13
2022-08-05T19:26:54.871Z,97492.02
2022-08-05T19:29:35.938Z,97495.06
2022-08-05T19:32:11.649Z,97496.64
2022-08-05T19:34:55.011Z,97495.13
2022-08-05T19:37:29.862Z,97497.68
2022-08-05T19:40:17.880Z,97494.62
2022-08-05T19:43:04.449Z,97496.30
2022-08-05T19:45:37.171Z,97498.21
2022-08-05T19:48:14.399Z,97501.30
2022-08-05T19:50:45.658Z,97499.69
2022-08-05T19:53:15.903Z,97502.82
2022-08-05T19:56:14.579Z,97500.45
2022-08-05T19:58:53.940Z,97502.38
2022-08-05T20:01:28.568Z,97500.41
2022-08-05T20:04:00.064Z,97501.36
2022-08-05T20:06:37.811Z,97500.64
2022-08-05T20:09:16.945Z,97495.92
2022-08-05T20:11:48.446Z,97501.34
2022-08-05T20:14:26.832Z,97499.48
2022-08-05T20:16:58.900Z,97501.57
2022-08-05T20:19:35.926Z,97500.09
2022-08-05T20:22:09.533Z,97499.31
2022-08-05T20:24:39.897Z,97499.57
2022-08-05T20:27:11.721Z,97499.03
2022-08-05T20:29:42.175Z,97499.48
2022-08-05T20:32:28.685Z,97502.27
2022-08-05T20:34:58.860Z,97503.09
2022-08-05T20:38:06.227Z,97497.85
2022-08-05T20:40:20.862Z,97500.33
2022-08-05T20:42:51.787Z,97499.05
2022-08-05T20:45:22.937Z,97499.08
2022-08-05T20:48:16.647Z,97496.73
2022-08-05T20:50:47.060Z,97491.34
2022-08-05T20:53:36.921Z,97491.20
2022-08-05T20:56:11.138Z,97490.48
2022-08-05T20:58:43.256Z,97488.98
2022-08-05T21:01:13.701Z,97485.55
2022-08-05T21:03:47.947Z,97489.03
2022-08-05T21:06:28.610Z,97489.52
2022-08-05T21:09:00.949Z,97491.89
2022-08-05T21:12:10.623Z,97488.17
2022-08-05T21:14:22.459Z,97484.93
2022-08-05T21:16:57.020Z,97487.69
2022-08-05T21:19:27.339Z,97490.82
2022-08-05T21:21:58.628Z,97492.91
2022-08-05T21:24:29.341Z,97488.04
2022-08-05T21:27:00.858Z,97491.86
2022-08-05T21:29:32.539Z,97491.47
2022-08-05T21:32:11.264Z,97490.11
2022-08-05T21:35:08.958Z,97488.13
2022-08-05T21:37:41.257Z,97485.27
2022-08-05T21:40:14.299Z,97490.88
2022-08-05T21:42:47.772Z,97484.39
2022-08-05T21:45:24.941Z,97488.30
2022-08-05T21:48:08.667Z,97489.70
2022-08-05T21:50:39.178Z,97492.46
2022-08-05T21:53:16.690Z,97495.00
2022-08-05T21:56:06.440Z,97493.30
2022-08-05T21:58:42.005Z,97495.34
2022-08-05T22:01:13.100Z,97494.48
2022-08-05T22:03:54.434Z,97489.38
2022-08-05T22:06:34.744Z,97492.33
2022-08-05T22:09:13.657Z,97490.71
2022-08-05T22:11:51.658Z,97489.99
2022-08-05T22:14:37.195Z,97490.44
2022-08-05T22:17:07.521Z,97488.93
2022-08-05T22:20:01.069Z,97488.44
2022-08-05T22:22:28.951Z,97489.13
2022-08-05T22:25:27.258Z,97492.61
2022-08-05T22:28:09.151Z,97491.00
2022-08-05T22:30:44.344Z,97490.45
2022-08-05T22:33:55.636Z,97491.46
2022-08-05T22:36:18.297Z,97493.58
2022-08-05T22:38:49.420Z,97492.86
2022-08-05T22:42:04.692Z,97489.86
2022-08-05T22:44:12.108Z,97487.14
2022-08-05T22:46:42.940Z,97488.91
2022-08-05T22:50:17.984Z,97488.44
2022-08-05T22:52:15.431Z,97484.88
2022-08-05T22:54:53.376Z,97486.21
2022-08-05T22:57:24.180Z,97490.57
2022-08-05T22:59:56.939Z,97488.60
2022-08-05T23:02:29.690Z,97488.91
2022-08-05T23:05:01.446Z,97486.58
2022-08-05T23:07:32.432Z,97484.92
2022-08-05T23:10:07.256Z,97484.61
2022-08-05T23:12:38.216Z,97483.37
2022-08-05T23:15:11.866Z,97480.95
2022-08-05T23:18:00.585Z,97479.92
2022-08-05T23:20:37.352Z,97481.95
2022-08-05T23:23:08.977Z,97478.16
2022-08-05T23:25:52.817Z,97481.38
2022-08-05T23:28:27.655Z,97478.44
2022-08-05T23:31:15.787Z,97478.23
2022-08-05T23:34:04.307Z,97478.60
2022-08-05T23:36:38.731Z,97476.19
2022-08-05T23:39:17.660Z,97473.02
2022-08-05T23:42:02.498Z,97473.51
2022-08-05T23:44:33.073Z,97476.84
2022-08-05T23:47:14.983Z,97475.25
2022-08-05T23:49:46.625Z,97470.90
2022-08-05T23:52:35.777Z,97466.32
2022-08-05T23:55:10.301Z,97462.91
2022-08-05T23:57:41.178Z,97463.09
